ěÝzenÝ letovÚho provozu ╚eskÚ republiky
Letiste: LKBC Aktualizace: 21.09.2021 03:55:28  UTC
 METAR LKBC 21.09. 04:00 ...
METAR LKBC 210400Z AUTO 27005KT 240V050 9999 OVC057 08/06 Q1025=